sensor_id;sensor_type;location;lat;lon;timestamp;pressure;altitude;pressure_sealevel;temperature;humidity
77366;BME280;66430;50.182;11.704;2023-02-28T00:00:09;95482.92;;;-2.52;41.38
77366;BME280;66430;50.182;11.704;2023-02-28T00:02:33;95483.91;;;-2.42;41.66
77366;BME280;66430;50.182;11.704;2023-02-28T00:04:58;95482.54;;;-2.40;41.78
77366;BME280;66430;50.182;11.704;2023-02-28T00:07:25;95481.27;;;-2.43;41.72
77366;BME280;66430;50.182;11.704;2023-02-28T00:09:49;95483.06;;;-2.38;41.66
77366;BME280;66430;50.182;11.704;2023-02-28T00:12:16;95480.89;;;-2.48;41.70
77366;BME280;66430;50.182;11.704;2023-02-28T00:14:41;95478.87;;;-2.73;42.26
77366;BME280;66430;50.182;11.704;2023-02-28T00:17:06;95478.37;;;-2.68;42.21
77366;BME280;66430;50.182;11.704;2023-02-28T00:19:31;95473.32;;;-2.70;42.39
77366;BME280;66430;50.182;11.704;2023-02-28T00:21:57;95475.27;;;-2.81;42.30
77366;BME280;66430;50.182;11.704;2023-02-28T00:24:23;95472.25;;;-2.60;42.40
77366;BME280;66430;50.182;11.704;2023-02-28T00:26:50;95473.46;;;-2.66;42.22
77366;BME280;66430;50.182;11.704;2023-02-28T00:29:14;95473.01;;;-2.67;42.33
77366;BME280;66430;50.182;11.704;2023-02-28T00:31:40;95474.27;;;-3.13;42.92
77366;BME280;66430;50.182;11.704;2023-02-28T00:34:06;95474.00;;;-3.02;43.36
77366;BME280;66430;50.182;11.704;2023-02-28T00:36:31;95472.25;;;-2.96;43.05
77366;BME280;66430;50.182;11.704;2023-02-28T00:38:57;95470.97;;;-2.47;42.46
77366;BME280;66430;50.182;11.704;2023-02-28T00:41:23;95471.51;;;-2.15;41.60
77366;BME280;66430;50.182;11.704;2023-02-28T00:43:48;95470.41;;;-1.78;41.01
77366;BME280;66430;50.182;11.704;2023-02-28T00:46:14;95471.17;;;-1.68;40.60
77366;BME280;66430;50.182;11.704;2023-02-28T00:48:40;95471.19;;;-2.29;41.08
77366;BME280;66430;50.182;11.704;2023-02-28T00:51:05;95472.38;;;-2.14;41.16
77366;BME280;66430;50.182;11.704;2023-02-28T00:53:30;95470.50;;;-2.19;41.20
77366;BME280;66430;50.182;11.704;2023-02-28T00:55:56;95472.14;;;-2.62;41.68
77366;BME280;66430;50.182;11.704;2023-02-28T00:58:20;95468.40;;;-2.02;42.11
77366;BME280;66430;50.182;11.704;2023-02-28T01:00:46;95466.20;;;-2.43;42.34
77366;BME280;66430;50.182;11.704;2023-02-28T01:03:12;95467.19;;;-2.90;42.71
77366;BME280;66430;50.182;11.704;2023-02-28T01:05:38;95466.56;;;-3.24;43.31
77366;BME280;66430;50.182;11.704;2023-02-28T01:08:05;95470.27;;;-3.28;43.86
77366;BME280;66430;50.182;11.704;2023-02-28T01:10:29;95464.20;;;-3.71;44.48
77366;BME280;66430;50.182;11.704;2023-02-28T01:12:54;95463.62;;;-3.55;44.38
77366;BME280;66430;50.182;11.704;2023-02-28T01:15:23;95465.52;;;-3.61;44.23
77366;BME280;66430;50.182;11.704;2023-02-28T01:17:46;95459.34;;;-3.36;44.01
77366;BME280;66430;50.182;11.704;2023-02-28T01:20:12;95460.74;;;-3.49;44.01
77366;BME280;66430;50.182;11.704;2023-02-28T01:22:37;95459.09;;;-3.81;44.45
77366;BME280;66430;50.182;11.704;2023-02-28T01:25:03;95456.26;;;-3.51;43.53
77366;BME280;66430;50.182;11.704;2023-02-28T01:27:28;95458.73;;;-3.56;43.85
77366;BME280;66430;50.182;11.704;2023-02-28T01:29:54;95449.34;;;-3.59;44.29
77366;BME280;66430;50.182;11.704;2023-02-28T01:32:19;95451.01;;;-3.95;44.29
77366;BME280;66430;50.182;11.704;2023-02-28T01:34:46;95446.43;;;-3.73;44.33
77366;BME280;66430;50.182;11.704;2023-02-28T01:37:10;95443.63;;;-3.96;44.23
77366;BME280;66430;50.182;11.704;2023-02-28T01:39:35;95448.08;;;-3.67;44.12
77366;BME280;66430;50.182;11.704;2023-02-28T01:42:01;95443.14;;;-3.47;43.93
77366;BME280;66430;50.182;11.704;2023-02-28T01:46:53;95439.63;;;-3.63;43.80
77366;BME280;66430;50.182;11.704;2023-02-28T01:49:18;95438.63;;;-3.65;43.42
77366;BME280;66430;50.182;11.704;2023-02-28T01:51:46;95436.12;;;-3.61;43.38
77366;BME280;66430;50.182;11.704;2023-02-28T01:54:12;95432.73;;;-3.59;43.22
77366;BME280;66430;50.182;11.704;2023-02-28T01:56:36;95428.39;;;-3.58;43.16
77366;BME280;66430;50.182;11.704;2023-02-28T01:59:01;95427.90;;;-3.70;43.24
77366;BME280;66430;50.182;11.704;2023-02-28T02:01:27;95424.08;;;-3.76;43.74
77366;BME280;66430;50.182;11.704;2023-02-28T02:03:53;95421.21;;;-3.63;43.29
77366;BME280;66430;50.182;11.704;2023-02-28T02:06:17;95420.21;;;-3.32;43.10
77366;BME280;66430;50.182;11.704;2023-02-28T02:08:43;95418.77;;;-3.40;42.25
77366;BME280;66430;50.182;11.704;2023-02-28T02:11:10;95416.84;;;-3.19;41.75
77366;BME280;66430;50.182;11.704;2023-02-28T02:13:42;95416.58;;;-3.00;41.58
77366;BME280;66430;50.182;11.704;2023-02-28T02:16:07;95414.49;;;-3.25;41.37
77366;BME280;66430;50.182;11.704;2023-02-28T02:18:31;95417.34;;;-3.09;41.43
77366;BME280;66430;50.182;11.704;2023-02-28T02:25:44;95419.13;;;-3.16;41.51
77366;BME280;66430;50.182;11.704;2023-02-28T02:28:26;95418.71;;;-3.40;40.96
77366;BME280;66430;50.182;11.704;2023-02-28T02:33:10;95412.07;;;-2.73;40.80
77366;BME280;66430;50.182;11.704;2023-02-28T02:35:25;95411.88;;;-2.88;40.77
77366;BME280;66430;50.182;11.704;2023-02-28T02:37:51;95410.38;;;-3.08;40.81
77366;BME280;66430;50.182;11.704;2023-02-28T02:40:18;95410.38;;;-3.48;41.07
77366;BME280;66430;50.182;11.704;2023-02-28T02:42:44;95406.66;;;-3.09;41.22
77366;BME280;66430;50.182;11.704;2023-02-28T02:45:08;95408.38;;;-3.23;41.05
77366;BME280;66430;50.182;11.704;2023-02-28T02:47:32;95407.25;;;-3.06;40.82
77366;BME280;66430;50.182;11.704;2023-02-28T02:49:58;95405.78;;;-3.49;40.69
77366;BME280;66430;50.182;11.704;2023-02-28T02:52:27;95408.34;;;-3.12;40.56
77366;BME280;66430;50.182;11.704;2023-02-28T02:54:49;95409.29;;;-3.24;40.29
77366;BME280;66430;50.182;11.704;2023-02-28T02:57:17;95411.50;;;-3.12;40.31
77366;BME280;66430;50.182;11.704;2023-02-28T02:59:40;95412.46;;;-3.45;40.72
77366;BME280;66430;50.182;11.704;2023-02-28T03:02:07;95408.11;;;-3.20;40.39
77366;BME280;66430;50.182;11.704;2023-02-28T03:04:33;95412.35;;;-3.52;40.63
77366;BME280;66430;50.182;11.704;2023-02-28T03:06:55;95411.31;;;-3.55;40.92
77366;BME280;66430;50.182;11.704;2023-02-28T03:09:21;95415.82;;;-3.00;40.55
77366;BME280;66430;50.182;11.704;2023-02-28T03:11:47;95415.27;;;-2.90;40.50
77366;BME280;66430;50.182;11.704;2023-02-28T03:14:24;95412.44;;;-3.26;40.27
77366;BME280;66430;50.182;11.704;2023-02-28T03:16:55;95413.44;;;-3.27;40.30
77366;BME280;66430;50.182;11.704;2023-02-28T03:19:13;95416.03;;;-3.28;40.27
77366;BME280;66430;50.182;11.704;2023-02-28T03:21:32;95409.52;;;-3.27;41.07
77366;BME280;66430;50.182;11.704;2023-02-28T03:23:58;95408.51;;;-3.86;42.27
77366;BME280;66430;50.182;11.704;2023-02-28T03:26:21;95408.68;;;-3.73;42.27
77366;BME280;66430;50.182;11.704;2023-02-28T03:28:52;95410.14;;;-3.96;42.59
77366;BME280;66430;50.182;11.704;2023-02-28T03:31:16;95412.89;;;-4.10;42.90
77366;BME280;66430;50.182;11.704;2023-02-28T03:33:40;95411.67;;;-3.53;42.12
77366;BME280;66430;50.182;11.704;2023-02-28T03:36:04;95414.76;;;-3.68;42.00
77366;BME280;66430;50.182;11.704;2023-02-28T03:38:31;95418.11;;;-3.38;42.16
77366;BME280;66430;50.182;11.704;2023-02-28T03:41:00;95415.73;;;-3.58;41.87
77366;BME280;66430;50.182;11.704;2023-02-28T03:43:24;95415.31;;;-3.51;41.33
77366;BME280;66430;50.182;11.704;2023-02-28T03:45:46;95414.35;;;-3.46;41.31
77366;BME280;66430;50.182;11.704;2023-02-28T03:48:15;95412.40;;;-3.82;41.66
77366;BME280;66430;50.182;11.704;2023-02-28T03:50:38;95415.27;;;-3.81;41.54
77366;BME280;66430;50.182;11.704;2023-02-28T03:53:04;95409.47;;;-3.93;42.72
77366;BME280;66430;50.182;11.704;2023-02-28T03:55:30;95408.58;;;-4.21;43.56
77366;BME280;66430;50.182;11.704;2023-02-28T03:57:58;95411.96;;;-4.17;44.20
77366;BME280;66430;50.182;11.704;2023-02-28T04:00:20;95415.34;;;-4.68;45.04
77366;BME280;66430;50.182;11.704;2023-02-28T04:02:45;95408.38;;;-4.66;45.05
77366;BME280;66430;50.182;11.704;2023-02-28T04:05:09;95420.62;;;-4.69;45.58
77366;BME280;66430;50.182;11.704;2023-02-28T04:07:34;95425.22;;;-4.88;45.91
77366;BME280;66430;50.182;11.704;2023-02-28T04:09:59;95430.55;;;-5.02;46.37
77366;BME280;66430;50.182;11.704;2023-02-28T04:12:25;95427.53;;;-4.60;46.63
77366;BME280;66430;50.182;11.704;2023-02-28T04:14:50;95427.00;;;-4.86;46.78
77366;BME280;66430;50.182;11.704;2023-02-28T04:17:15;95428.28;;;-4.97;46.34
77366;BME280;66430;50.182;11.704;2023-02-28T04:19:41;95433.86;;;-4.73;45.46
77366;BME280;66430;50.182;11.704;2023-02-28T04:22:06;95428.42;;;-4.45;45.05
77366;BME280;66430;50.182;11.704;2023-02-28T04:24:31;95427.52;;;-4.53;44.28
77366;BME280;66430;50.182;11.704;2023-02-28T04:26:58;95427.35;;;-3.90;43.61
77366;BME280;66430;50.182;11.704;2023-02-28T04:29:24;95425.52;;;-4.25;43.87
77366;BME280;66430;50.182;11.704;2023-02-28T04:31:48;95425.06;;;-4.02;43.10
77366;BME280;66430;50.182;11.704;2023-02-28T04:34:14;95427.88;;;-4.15;42.93
77366;BME280;66430;50.182;11.704;2023-02-28T04:36:39;95427.18;;;-3.74;42.55
77366;BME280;66430;50.182;11.704;2023-02-28T04:39:07;95427.72;;;-3.70;42.46
77366;BME280;66430;50.182;11.704;2023-02-28T04:41:30;95431.67;;;-3.61;42.32
77366;BME280;66430;50.182;11.704;2023-02-28T04:43:56;95432.48;;;-3.82;41.78
77366;BME280;66430;50.182;11.704;2023-02-28T04:46:22;95428.89;;;-3.14;41.57
77366;BME280;66430;50.182;11.704;2023-02-28T04:48:47;95425.34;;;-3.69;41.52
77366;BME280;66430;50.182;11.704;2023-02-28T04:51:14;95428.26;;;-3.52;41.64
77366;BME280;66430;50.182;11.704;2023-02-28T04:53:39;95428.57;;;-3.34;41.16
77366;BME280;66430;50.182;11.704;2023-02-28T04:56:04;95430.28;;;-3.56;42.03
77366;BME280;66430;50.182;11.704;2023-02-28T04:58:29;95428.10;;;-3.61;42.12
77366;BME280;66430;50.182;11.704;2023-02-28T05:01:03;95429.74;;;-3.83;42.20
77366;BME280;66430;50.182;11.704;2023-02-28T05:03:20;95432.87;;;-3.83;42.12
77366;BME280;66430;50.182;11.704;2023-02-28T05:05:46;95435.69;;;-3.73;41.67
77366;BME280;66430;50.182;11.704;2023-02-28T05:08:12;95439.49;;;-3.51;41.72
77366;BME280;66430;50.182;11.704;2023-02-28T05:10:37;95436.46;;;-3.71;41.77
77366;BME280;66430;50.182;11.704;2023-02-28T05:13:02;95440.09;;;-3.45;41.63
77366;BME280;66430;50.182;11.704;2023-02-28T05:15:27;95440.54;;;-3.36;41.59
77366;BME280;66430;50.182;11.704;2023-02-28T05:17:52;95442.46;;;-3.86;41.69
77366;BME280;66430;50.182;11.704;2023-02-28T05:20:18;95440.21;;;-4.19;41.83
77366;BME280;66430;50.182;11.704;2023-02-28T05:22:43;95447.25;;;-3.80;41.45
77366;BME280;66430;50.182;11.704;2023-02-28T05:25:11;95442.75;;;-4.05;42.39
77366;BME280;66430;50.182;11.704;2023-02-28T05:27:35;95445.15;;;-4.04;42.60
77366;BME280;66430;50.182;11.704;2023-02-28T05:30:00;95446.33;;;-4.30;42.99
77366;BME280;66430;50.182;11.704;2023-02-28T05:32:25;95445.92;;;-4.61;43.66
77366;BME280;66430;50.182;11.704;2023-02-28T05:34:51;95454.85;;;-4.95;45.01
77366;BME280;66430;50.182;11.704;2023-02-28T05:37:16;95449.28;;;-5.19;45.67
77366;BME280;66430;50.182;11.704;2023-02-28T05:39:41;95446.81;;;-4.99;45.64
77366;BME280;66430;50.182;11.704;2023-02-28T05:42:06;95449.10;;;-4.68;45.79
77366;BME280;66430;50.182;11.704;2023-02-28T05:44:32;95454.69;;;-5.05;45.93
77366;BME280;66430;50.182;11.704;2023-02-28T05:46:57;95447.37;;;-5.36;46.28
77366;BME280;66430;50.182;11.704;2023-02-28T05:49:23;95446.72;;;-5.03;45.50
77366;BME280;66430;50.182;11.704;2023-02-28T05:51:48;95451.18;;;-5.05;45.07
77366;BME280;66430;50.182;11.704;2023-02-28T05:54:14;95446.59;;;-4.43;44.30
77366;BME280;66430;50.182;11.704;2023-02-28T05:56:39;95444.88;;;-4.37;43.46
77366;BME280;66430;50.182;11.704;2023-02-28T05:59:05;95447.13;;;-4.37;43.85
77366;BME280;66430;50.182;11.704;2023-02-28T06:01:33;95448.53;;;-3.90;43.72
77366;BME280;66430;50.182;11.704;2023-02-28T06:03:55;95448.32;;;-3.88;43.54
77366;BME280;66430;50.182;11.704;2023-02-28T06:06:21;95453.59;;;-3.56;43.14
77366;BME280;66430;50.182;11.704;2023-02-28T06:08:46;95454.08;;;-3.72;43.50
77366;BME280;66430;50.182;11.704;2023-02-28T06:11:14;95453.23;;;-4.03;44.08
77366;BME280;66430;50.182;11.704;2023-02-28T06:13:37;95455.27;;;-3.51;44.17
77366;BME280;66430;50.182;11.704;2023-02-28T06:16:04;95458.01;;;-3.78;43.97
77366;BME280;66430;50.182;11.704;2023-02-28T06:18:28;95466.89;;;-3.61;43.47
77366;BME280;66430;50.182;11.704;2023-02-28T06:20:53;95467.23;;;-3.86;43.37
77366;BME280;66430;50.182;11.704;2023-02-28T06:23:19;95473.44;;;-3.94;44.55
77366;BME280;66430;50.182;11.704;2023-02-28T06:25:45;95471.75;;;-4.18;45.82
77366;BME280;66430;50.182;11.704;2023-02-28T06:28:10;95471.79;;;-4.29;46.46
77366;BME280;66430;50.182;11.704;2023-02-28T06:30:37;95480.01;;;-4.82;47.36
77366;BME280;66430;50.182;11.704;2023-02-28T06:33:02;95482.83;;;-5.23;49.11
77366;BME280;66430;50.182;11.704;2023-02-28T06:35:27;95481.64;;;-5.39;49.13
77366;BME280;66430;50.182;11.704;2023-02-28T06:37:53;95490.10;;;-4.98;49.18
77366;BME280;66430;50.182;11.704;2023-02-28T06:40:18;95483.65;;;-5.12;49.11
77366;BME280;66430;50.182;11.704;2023-02-28T06:42:43;95493.71;;;-5.20;49.59
77366;BME280;66430;50.182;11.704;2023-02-28T06:45:10;95496.38;;;-5.34;49.75
77366;BME280;66430;50.182;11.704;2023-02-28T06:47:34;95489.12;;;-5.40;50.41
77366;BME280;66430;50.182;11.704;2023-02-28T06:50:00;95486.57;;;-5.12;50.44
77366;BME280;66430;50.182;11.704;2023-02-28T06:52:25;95495.06;;;-5.19;49.86
77366;BME280;66430;50.182;11.704;2023-02-28T06:54:50;95496.96;;;-5.01;49.79
77366;BME280;66430;50.182;11.704;2023-02-28T06:57:16;95492.06;;;-5.09;49.93
77366;BME280;66430;50.182;11.704;2023-02-28T06:59:41;95497.50;;;-4.81;49.26
77366;BME280;66430;50.182;11.704;2023-02-28T07:02:07;95493.23;;;-5.26;50.44
77366;BME280;66430;50.182;11.704;2023-02-28T07:04:31;95495.07;;;-5.23;49.84
77366;BME280;66430;50.182;11.704;2023-02-28T07:06:57;95484.14;;;-4.93;49.63
77366;BME280;66430;50.182;11.704;2023-02-28T07:09:22;95494.25;;;-4.71;49.19
77366;BME280;66430;50.182;11.704;2023-02-28T07:11:48;95490.29;;;-4.92;48.67
77366;BME280;66430;50.182;11.704;2023-02-28T07:14:13;95495.52;;;-4.72;48.89
77366;BME280;66430;50.182;11.704;2023-02-28T07:16:39;95494.03;;;-4.78;48.43
77366;BME280;66430;50.182;11.704;2023-02-28T07:19:05;95496.61;;;-4.51;48.34
77366;BME280;66430;50.182;11.704;2023-02-28T07:21:30;95501.27;;;-4.72;47.74
77366;BME280;66430;50.182;11.704;2023-02-28T07:23:57;95498.99;;;-5.12;48.46
77366;BME280;66430;50.182;11.704;2023-02-28T07:26:21;95502.04;;;-4.79;48.15
77366;BME280;66430;50.182;11.704;2023-02-28T07:28:48;95509.11;;;-4.46;47.57
77366;BME280;66430;50.182;11.704;2023-02-28T07:31:14;95505.91;;;-4.69;47.94
77366;BME280;66430;50.182;11.704;2023-02-28T07:33:38;95517.82;;;-4.50;47.37
77366;BME280;66430;50.182;11.704;2023-02-28T07:36:05;95506.56;;;-4.57;47.11
77366;BME280;66430;50.182;11.704;2023-02-28T07:38:28;95506.87;;;-4.15;46.24
77366;BME280;66430;50.182;11.704;2023-02-28T07:40:53;95502.41;;;-3.53;44.92
77366;BME280;66430;50.182;11.704;2023-02-28T07:43:21;95504.37;;;-3.91;44.72
77366;BME280;66430;50.182;11.704;2023-02-28T07:45:44;95509.04;;;-4.09;45.88
77366;BME280;66430;50.182;11.704;2023-02-28T07:48:10;95514.42;;;-4.20;45.79
77366;BME280;66430;50.182;11.704;2023-02-28T07:50:36;95520.55;;;-4.40;46.26
77366;BME280;66430;50.182;11.704;2023-02-28T07:53:01;95517.88;;;-4.68;47.67
77366;BME280;66430;50.182;11.704;2023-02-28T07:55:27;95516.78;;;-4.59;47.59
77366;BME280;66430;50.182;11.704;2023-02-28T07:57:52;95513.68;;;-4.32;46.97
77366;BME280;66430;50.182;11.704;2023-02-28T08:00:18;95517.57;;;-4.78;46.65
77366;BME280;66430;50.182;11.704;2023-02-28T08:02:43;95520.72;;;-4.29;46.61
77366;BME280;66430;50.182;11.704;2023-02-28T08:05:10;95521.98;;;-4.15;45.79
77366;BME280;66430;50.182;11.704;2023-02-28T08:07:33;95518.93;;;-4.06;45.89
77366;BME280;66430;50.182;11.704;2023-02-28T08:09:59;95524.81;;;-4.38;45.86
77366;BME280;66430;50.182;11.704;2023-02-28T08:12:24;95520.90;;;-4.69;46.45
77366;BME280;66430;50.182;11.704;2023-02-28T08:14:50;95512.68;;;-4.13;45.59
77366;BME280;66430;50.182;11.704;2023-02-28T08:17:15;95514.42;;;-3.74;44.67
77366;BME280;66430;50.182;11.704;2023-02-28T08:19:42;95512.76;;;-4.28;46.15
77366;BME280;66430;50.182;11.704;2023-02-28T08:22:07;95511.61;;;-4.81;47.04
77366;BME280;66430;50.182;11.704;2023-02-28T08:24:32;95510.08;;;-4.80;47.30
77366;BME280;66430;50.182;11.704;2023-02-28T08:26:59;95506.61;;;-4.44;46.36
77366;BME280;66430;50.182;11.704;2023-02-28T08:29:24;95524.55;;;-4.66;45.36
77366;BME280;66430;50.182;11.704;2023-02-28T08:31:49;95505.04;;;-4.37;45.77
77366;BME280;66430;50.182;11.704;2023-02-28T08:34:16;95507.30;;;-4.61;45.97
77366;BME280;66430;50.182;11.704;2023-02-28T08:36:41;95503.61;;;-3.63;44.43
77366;BME280;66430;50.182;11.704;2023-02-28T08:39:07;95510.03;;;-3.86;43.75
77366;BME280;66430;50.182;11.704;2023-02-28T08:41:32;95501.39;;;-3.43;43.66
77366;BME280;66430;50.182;11.704;2023-02-28T08:43:57;95502.59;;;-3.20;42.65
77366;BME280;66430;50.182;11.704;2023-02-28T08:46:23;95528.04;;;-3.67;43.72
77366;BME280;66430;50.182;11.704;2023-02-28T08:48:52;95519.37;;;-3.89;43.67
77366;BME280;66430;50.182;11.704;2023-02-28T08:51:15;95523.05;;;-4.12;44.92
77366;BME280;66430;50.182;11.704;2023-02-28T08:53:39;95507.92;;;-3.66;44.63
77366;BME280;66430;50.182;11.704;2023-02-28T08:56:07;95511.81;;;-3.11;42.78
77366;BME280;66430;50.182;11.704;2023-02-28T08:58:30;95521.96;;;-3.17;41.89
77366;BME280;66430;50.182;11.704;2023-02-28T09:00:56;95510.95;;;-2.94;43.04
77366;BME280;66430;50.182;11.704;2023-02-28T09:03:22;95524.20;;;-2.85;41.83
77366;BME280;66430;50.182;11.704;2023-02-28T09:05:54;95523.91;;;-3.45;43.01
77366;BME280;66430;50.182;11.704;2023-02-28T09:08:12;95526.60;;;-3.97;43.99
77366;BME280;66430;50.182;11.704;2023-02-28T09:10:37;95521.51;;;-4.33;45.86
77366;BME280;66430;50.182;11.704;2023-02-28T09:13:03;95513.25;;;-4.37;45.97
77366;BME280;66430;50.182;11.704;2023-02-28T09:15:29;95520.95;;;-4.83;46.62
77366;BME280;66430;50.182;11.704;2023-02-28T09:17:54;95522.39;;;-4.31;45.18
77366;BME280;66430;50.182;11.704;2023-02-28T09:20:19;95524.21;;;-3.76;44.34
77366;BME280;66430;50.182;11.704;2023-02-28T09:22:44;95535.08;;;-3.39;43.35
77366;BME280;66430;50.182;11.704;2023-02-28T09:25:10;95532.27;;;-3.84;43.81
77366;BME280;66430;50.182;11.704;2023-02-28T09:27:35;95534.74;;;-4.11;43.96
77366;BME280;66430;50.182;11.704;2023-02-28T09:30:01;95518.66;;;-4.15;45.27
77366;BME280;66430;50.182;11.704;2023-02-28T09:32:26;95539.03;;;-4.11;45.23
77366;BME280;66430;50.182;11.704;2023-02-28T09:34:51;95534.31;;;-3.79;44.48
77366;BME280;66430;50.182;11.704;2023-02-28T09:37:17;95530.73;;;-3.44;43.10
77366;BME280;66430;50.182;11.704;2023-02-28T09:39:43;95527.21;;;-3.98;44.30
77366;BME280;66430;50.182;11.704;2023-02-28T09:42:18;95530.39;;;-3.39;43.16
77366;BME280;66430;50.182;11.704;2023-02-28T09:44:36;95535.75;;;-3.34;41.64
77366;BME280;66430;50.182;11.704;2023-02-28T09:47:05;95522.84;;;-2.66;41.76
77366;BME280;66430;50.182;11.704;2023-02-28T09:49:28;95513.74;;;-3.37;41.29
77366;BME280;66430;50.182;11.704;2023-02-28T09:51:57;95526.39;;;-4.11;43.06
77366;BME280;66430;50.182;11.704;2023-02-28T09:54:17;95524.49;;;-3.74;43.63
77366;BME280;66430;50.182;11.704;2023-02-28T09:56:41;95525.78;;;-3.88;42.72
77366;BME280;66430;50.182;11.704;2023-02-28T09:59:13;95517.75;;;-4.17;42.88
77366;BME280;66430;50.182;11.704;2023-02-28T10:01:36;95523.09;;;-3.11;42.48
77366;BME280;66430;50.182;11.704;2023-02-28T10:03:59;95517.62;;;-2.78;41.23
77366;BME280;66430;50.182;11.704;2023-02-28T10:06:25;95518.72;;;-2.47;41.22
77366;BME280;66430;50.182;11.704;2023-02-28T10:08:55;95525.19;;;-2.82;41.22
77366;BME280;66430;50.182;11.704;2023-02-28T10:11:14;95536.74;;;-3.06;41.42
77366;BME280;66430;50.182;11.704;2023-02-28T10:13:46;95515.48;;;-2.82;41.63
77366;BME280;66430;50.182;11.704;2023-02-28T10:16:06;95509.08;;;-3.07;41.36
77366;BME280;66430;50.182;11.704;2023-02-28T10:18:46;95533.59;;;-3.88;43.89
77366;BME280;66430;50.182;11.704;2023-02-28T10:20:55;95517.63;;;-3.21;43.05
77366;BME280;66430;50.182;11.704;2023-02-28T10:23:21;95517.47;;;-2.68;41.47
77366;BME280;66430;50.182;11.704;2023-02-28T10:25:47;95528.19;;;-3.23;40.64
77366;BME280;66430;50.182;11.704;2023-02-28T10:28:13;95533.82;;;-3.34;41.80
77366;BME280;66430;50.182;11.704;2023-02-28T10:30:36;95539.46;;;-3.71;43.54
77366;BME280;66430;50.182;11.704;2023-02-28T10:32:59;95532.85;;;-3.44;44.26
77366;BME280;66430;50.182;11.704;2023-02-28T10:35:26;95529.06;;;-3.75;42.22
77366;BME280;66430;50.182;11.704;2023-02-28T10:37:54;95514.34;;;-3.49;42.89
77366;BME280;66430;50.182;11.704;2023-02-28T10:40:29;95521.13;;;-3.08;41.29
77366;BME280;66430;50.182;11.704;2023-02-28T10:42:42;95516.41;;;-2.55;40.55
77366;BME280;66430;50.182;11.704;2023-02-28T10:45:13;95529.14;;;-1.90;39.14
77366;BME280;66430;50.182;11.704;2023-02-28T10:47:34;95517.00;;;-1.96;39.10
77366;BME280;66430;50.182;11.704;2023-02-28T10:54:56;95529.04;;;-2.49;38.79
77366;BME280;66430;50.182;11.704;2023-02-28T10:57:18;95534.13;;;-3.10;41.21
77366;BME280;66430;50.182;11.704;2023-02-28T10:59:42;95529.71;;;-2.98;40.76
77366;BME280;66430;50.182;11.704;2023-02-28T11:04:34;95519.29;;;-2.92;40.52
77366;BME280;66430;50.182;11.704;2023-02-28T11:06:59;95524.06;;;-2.81;41.49
77366;BME280;66430;50.182;11.704;2023-02-28T11:09:26;95521.66;;;-2.71;41.64
77366;BME280;66430;50.182;11.704;2023-02-28T11:11:49;95510.87;;;-2.82;41.17
77366;BME280;66430;50.182;11.704;2023-02-28T11:14:20;95512.29;;;-2.28;39.83
77366;BME280;66430;50.182;11.704;2023-02-28T11:16:40;95514.62;;;-1.73;38.24
77366;BME280;66430;50.182;11.704;2023-02-28T11:19:16;95513.68;;;-2.16;39.79
77366;BME280;66430;50.182;11.704;2023-02-28T11:21:33;95528.89;;;-2.77;39.98
77366;BME280;66430;50.182;11.704;2023-02-28T11:24:00;95523.16;;;-1.96;39.31
77366;BME280;66430;50.182;11.704;2023-02-28T11:26:35;95517.39;;;-2.66;40.55
77366;BME280;66430;50.182;11.704;2023-02-28T11:28:47;95516.90;;;-1.81;40.28
77366;BME280;66430;50.182;11.704;2023-02-28T11:31:18;95519.90;;;-2.45;39.36
77366;BME280;66430;50.182;11.704;2023-02-28T11:33:42;95518.76;;;-2.07;39.24
77366;BME280;66430;50.182;11.704;2023-02-28T11:36:12;95519.80;;;-1.77;37.89
77366;BME280;66430;50.182;11.704;2023-02-28T11:38:31;95518.73;;;-0.68;37.09
77366;BME280;66430;50.182;11.704;2023-02-28T11:41:07;95527.50;;;-1.58;37.17
77366;BME280;66430;50.182;11.704;2023-02-28T11:43:30;95528.52;;;-1.54;36.99
77366;BME280;66430;50.182;11.704;2023-02-28T11:45:55;95521.88;;;-1.92;38.08
77366;BME280;66430;50.182;11.704;2023-02-28T11:48:17;95511.74;;;-2.38;39.27
77366;BME280;66430;50.182;11.704;2023-02-28T11:50:45;95511.76;;;-2.38;39.35
77366;BME280;66430;50.182;11.704;2023-02-28T11:53:10;95510.04;;;-2.43;39.46
77366;BME280;66430;50.182;11.704;2023-02-28T11:55:33;95501.54;;;-2.43;39.91
77366;BME280;66430;50.182;11.704;2023-02-28T12:00:30;95517.98;;;-1.89;38.63
77366;BME280;66430;50.182;11.704;2023-02-28T12:02:57;95512.94;;;-2.02;39.07
77366;BME280;66430;50.182;11.704;2023-02-28T12:05:18;95507.05;;;-2.13;39.13
77366;BME280;66430;50.182;11.704;2023-02-28T12:07:40;95509.12;;;-2.39;41.35
77366;BME280;66430;50.182;11.704;2023-02-28T12:10:06;95495.80;;;-1.63;39.08
77366;BME280;66430;50.182;11.704;2023-02-28T12:12:37;95502.83;;;-1.00;38.33
77366;BME280;66430;50.182;11.704;2023-02-28T12:15:02;95497.76;;;-0.49;36.28
77366;BME280;66430;50.182;11.704;2023-02-28T12:17:22;95489.27;;;-0.88;35.68
77366;BME280;66430;50.182;11.704;2023-02-28T12:19:46;95500.85;;;-0.25;35.36
77366;BME280;66430;50.182;11.704;2023-02-28T12:22:17;95500.69;;;-0.31;34.91
77366;BME280;66430;50.182;11.704;2023-02-28T12:24:47;95500.76;;;0.26;33.95
77366;BME280;66430;50.182;11.704;2023-02-28T12:27:00;95498.92;;;0.40;35.16
77366;BME280;66430;50.182;11.704;2023-02-28T12:29:26;95505.53;;;0.00;34.75
77366;BME280;66430;50.182;11.704;2023-02-28T12:31:51;95500.62;;;0.17;34.44
77366;BME280;66430;50.182;11.704;2023-02-28T12:34:16;95503.57;;;-0.47;35.68
77366;BME280;66430;50.182;11.704;2023-02-28T12:36:40;95488.29;;;-0.88;37.59
77366;BME280;66430;50.182;11.704;2023-02-28T12:39:10;95493.03;;;-0.43;35.04
77366;BME280;66430;50.182;11.704;2023-02-28T12:41:34;95500.56;;;-0.40;36.20
77366;BME280;66430;50.182;11.704;2023-02-28T12:44:00;95498.15;;;-0.62;36.67
77366;BME280;66430;50.182;11.704;2023-02-28T12:46:25;95495.21;;;-1.32;36.87
77366;BME280;66430;50.182;11.704;2023-02-28T12:48:49;95487.19;;;-1.23;37.09
77366;BME280;66430;50.182;11.704;2023-02-28T12:51:14;95483.90;;;-0.53;37.04
77366;BME280;66430;50.182;11.704;2023-02-28T12:53:48;95491.05;;;-0.29;37.20
77366;BME280;66430;50.182;11.704;2023-02-28T12:56:12;95488.34;;;0.17;36.63
77366;BME280;66430;50.182;11.704;2023-02-28T12:58:34;95485.73;;;-0.30;36.51